Data for 11/05/2016

Time Sea-Level Adjusted Pressure Absolute Pressure Temperature Relative Humidity Dew Point   
(mb) (inHg) (mb) (inHg) (C) (F) (%) (C) (F)
00:05 1025 30.27 854 25.22 4.5 40.1 42 -7.4 18.6
00:10 1025 30.27 854 25.22 4.7 40.4 43 -6.9 19.6
00:15 1025 30.27 854 25.22 4.3 39.7 44 -7 19.4
00:20 1025 30.27 854 25.22 4.3 39.8 42 -7.5 18.5
00:25 1025 30.27 854 25.22 4.7 40.5 41 -7.6 18.4
00:30 1025 30.27 854 25.22 5.8 42.4 37 -7.9 17.7
00:35 1025 30.27 854 25.22 5.3 41.6 41 -7 19.4
00:40 1025 30.27 854 25.22 4.8 40.7 39 -7.9 17.8
00:45 1025 30.27 854 25.22 5.2 41.4 38 -7.8 17.9
00:50 1025 30.27 854 25.22 5.7 42.2 36 -8.1 17.4
00:55 1025 30.27 854 25.22 6.1 43 35 -8.1 17.4
01:00 1025 30.27 854 25.22 6.2 43.1 35 -8.1 17.4
01:05 1025 30.27 854 25.22 6.3 43.3 35 -8.1 17.3
01:10 1025 30.27 854 25.22 6.3 43.3 35 -8.1 17.5
01:15 1025 30.27 854 25.22 6.1 42.9 36 -8 17.6
01:20 1025 30.27 854 25.22 6.3 43.3 34 -8.5 16.7
01:25 1025 30.27 854 25.22 6.3 43.4 34 -8.3 17
01:30 1025 30.27 854 25.22 6.4 43.5 35 -7.9 17.7
01:35 1025 30.27 854 25.22 5.5 42 36 -8.4 16.9
01:40 1025 30.27 854 25.22 6 42.7 35 -8.2 17.2
01:45 1025 30.27 854 25.22 5.8 42.4 36 -8.2 17.2
01:50 1025 30.27 854 25.22 5.7 42.2 37 -7.9 17.8
01:55 1025 30.27 854 25.22 5.2 41.3 38 -7.9 17.7
02:00 1025 30.27 854 25.22 5.3 41.6 36 -8.7 16.4
02:05 1025 30.27 854 25.22 5.6 42.1 36 -8.4 16.9
02:10 1025 30.27 854 25.22 4.9 40.9 38 -8.2 17.2
02:15 1025 30.27 854 25.22 4.2 39.5 41 -7.8 17.9
02:20 1025 30.27 854 25.22 3.5 38.3 42 -8.2 17.2
02:25 1025 30.27 854 25.22 4 39.2 37 -9.2 15.4
02:30 1025 30.27 854 25.22 4.3 39.8 37 -9 15.8
02:35 1025 30.27 854 25.22 4.8 40.6 35 -9.3 15.3
02:40 1025 30.27 854 25.22 5.5 41.9 34 -9.2 15.4
02:45 1025 30.27 854 25.22 6.1 43 33 -8.8 16.2
02:50 1025 30.27 854 25.22 5.3 41.6 37 -8.3 17.1
02:55 1025 30.27 854 25.22 4.6 40.2 38 -8.7 16.3
03:00 1025 30.27 854 25.22 4.3 39.8 38 -8.7 16.4
03:05 1025 30.27 854 25.22 3.7 38.6 42 -7.9 17.7
03:10 1024 30.24 854 25.22 3.5 38.3 41 -8.4 16.9
03:15 1024 30.24 854 25.22 3.8 38.8 41 -8.2 17.2
03:20 1024 30.24 854 25.22 4.3 39.7 39 -8.5 16.7
03:25 1024 30.24 854 25.22 4.7 40.4 39 -8.3 17.1
03:30 1024 30.24 853 25.19 4.7 40.4 39 -8 17.6
03:35 1024 30.24 853 25.19 4.2 39.6 41 -7.9 17.9
03:40 1024 30.24 853 25.19 4.1 39.3 41 -8.1 17.5
03:45 1024 30.24 853 25.19 4.3 39.7 40 -8.3 17.1
03:50 1024 30.24 853 25.19 4.5 40.1 39 -8.4 16.9
03:55 1024 30.24 853 25.19 4.7 40.4 38 -8.3 17
04:00 1024 30.24 853 25.19 4.7 40.4 39 -8 17.6
04:05 1024 30.24 853 25.19 4.4 40 41 -7.8 18
04:10 1024 30.24 853 25.19 4 39.2 42 -7.9 17.9
04:15 1024 30.24 853 25.19 3.9 39.1 40 -8.3 17
04:20 1024 30.24 853 25.19 4.4 39.9 38 -8.7 16.4
04:25 1024 30.24 853 25.19 4.7 40.5 37 -8.7 16.3
04:30 1024 30.24 853 25.19 5.5 41.8 34 -9.2 15.4
04:35 1024 30.24 853 25.19 5.8 42.5 34 -8.9 15.9
04:40 1024 30.24 853 25.19 5.8 42.4 34 -8.9 15.9
04:45 1024 30.24 853 25.19 5.8 42.4 33 -9.1 15.6
04:50 1024 30.24 853 25.19 5.8 42.4 35 -8.6 16.5
04:55 1024 30.24 853 25.19 5.3 41.5 36 -8.6 16.4
05:00 1024 30.24 853 25.19 5.3 41.6 36 -8.4 16.8
05:05 1024 30.24 853 25.19 4.3 39.7 36 -9.6 14.8
05:10 1024 30.24 853 25.19 4.4 39.9 35 -9.7 14.5
05:15 1024 30.24 853 25.19 4.8 40.7 36 -9.2 15.5
05:20 1024 30.24 853 25.19 4.3 39.7 38 -9 15.9
05:25 1024 30.24 853 25.19 4.1 39.4 38 -8.8 16.1
05:30 1024 30.24 853 25.19 4 39.2 37 -9.4 15
05:35 1024 30.24 853 25.19 4.1 39.4 37 -9.3 15.3
05:40 1024 30.24 853 25.19 3.9 39 38 -9.1 15.6
05:45 1024 30.24 853 25.19 4 39.2 37 -9.3 15.3
05:50 1024 30.24 853 25.19 4.5 40.1 37 -9.1 15.7
05:55 1024 30.24 853 25.19 4.5 40.1 38 -8.7 16.3
06:00 1024 30.24 853 25.19 4.5 40.1 38 -8.7 16.4
06:05 1024 30.24 853 25.19 4.3 39.7 39 -8.5 16.7
06:10 1024 30.24 853 25.19 4.2 39.5 39 -8.5 16.7
06:15 1024 30.24 853 25.19 4 39.2 40 -8.4 16.9
06:20 1024 30.24 853 25.19 3.8 38.8 41 -8.3 17.1
06:25 1024 30.24 853 25.19 3.8 38.9 40 -8.5 16.7
06:30 1024 30.24 853 25.19 3.7 38.7 41 -8.4 16.9
06:35 1024 30.24 853 25.19 3.5 38.3 42 -8.1 17.4
06:40 1024 30.24 853 25.19 3.1 37.6 44 -8 17.5
06:45 1024 30.24 853 25.19 2.6 36.6 46 -8 17.6
06:50 1024 30.24 853 25.19 1.8 35.3 48 -8 17.5
06:55 1024 30.24 853 25.19 1.7 35 48 -8.2 17.2
07:00 1024 30.24 853 25.19 1.7 35.1 46 -8.7 16.4
07:05 1024 30.24 853 25.19 2.3 36.2 43 -8.9 15.9
07:10 1024 30.24 853 25.19 2.5 36.5 45 -8.4 16.9
07:15 1024 30.24 853 25.19 2 35.6 46 -8.5 16.7
07:20 1024 30.24 853 25.19 1.8 35.3 46 -8.5 16.7
07:25 1024 30.24 853 25.19 1.9 35.4 46 -8.6 16.5
07:30 1024 30.24 853 25.19 1.6 34.9 48 -8.2 17.3
07:35 1024 30.24 853 25.19 1.4 34.5 47 -8.6 16.5
07:40 1024 30.24 853 25.19 2 35.5 45 -8.8 16.1
07:45 1024 30.24 853 25.19 2.2 36 47 -7.9 17.7
07:50 1024 30.24 853 25.19 1.6 34.9 45 -9 15.8
07:55 1024 30.24 853 25.19 2.6 36.6 43 -8.7 16.4
08:00 1024 30.24 853 25.19 2.9 37.3 43 -8.4 16.8
08:05 1024 30.24 853 25.19 3.3 37.9 42 -8.4 16.8
08:10 1024 30.24 853 25.19 3.6 38.5 42 -8.3 17.1
08:15 1024 30.24 853 25.19 3.5 38.2 42 -8.1 17.4
08:20 1024 30.24 853 25.19 3.7 38.6 41 -8.3 17.1
08:25 1024 30.24 853 25.19 4.2 39.6 40 -8.3 17
08:30 1024 30.24 853 25.19 4.6 40.2 39 -8.3 17
08:35 1024 30.24 853 25.19 4.9 40.9 38 -8.1 17.4
08:40 1024 30.24 853 25.19 5.3 41.5 38 -8 17.7
08:45 1024 30.24 853 25.19 5.6 42 37 -7.9 17.8
08:50 1024 30.24 853 25.19 5.8 42.4 37 -7.8 18
08:55 1024 30.24 853 25.19 6.1 43 36 -7.8 18
09:00 1024 30.24 853 25.19 6.8 44.3 34 -7.9 17.7
09:05 1024 30.24 853 25.19 7.4 45.2 33 -7.8 18
09:10 1024 30.24 853 25.19 7.5 45.4 33 -7.7 18.2
09:15 1024 30.24 853 25.19 7.8 46 32 -7.9 17.8
09:20 1024 30.24 853 25.19 8.1 46.6 31 -8 17.6
09:25 1023 30.21 853 25.19 8.4 47.1 30 -8.3 17.1
09:30 1023 30.21 853 25.19 8.5 47.2 29 -8.7 16.3
09:35 1023 30.21 853 25.19 8.7 47.7 28 -8.9 16.1
09:40 1023 30.21 852 25.16 8.7 47.7 29 -8.5 16.7
09:45 1023 30.21 852 25.16 9.2 48.6 28 -8.6 16.6
09:50 1023 30.21 852 25.16 9.6 49.2 27 -8.7 16.3
09:55 1023 30.21 852 25.16 9.8 49.6 27 -8.3 17
10:00 1023 30.21 852 25.16 10 50 27 -8.1 17.5
10:05 1023 30.21 852 25.16 10.3 50.6 27 -7.8 18
10:10 1023 30.21 852 25.16 10.3 50.6 28 -7.5 18.6
10:15 1023 30.21 852 25.16 10.5 50.8 27 -7.5 18.4
10:20 1023 30.21 852 25.16 10.5 50.9 27 -7.5 18.5
10:25 1023 30.21 852 25.16 11.4 52.4 27 -7.2 19.1
10:30 1022 30.18 852 25.16 11.2 52.1 26 -7.4 18.6
10:35 1022 30.18 852 25.16 12.1 53.7 26 -7 19.4
10:40 1022 30.18 852 25.16 12.3 54.2 25 -7.1 19.3
10:45 1022 30.18 851 25.13 12.4 54.3 25 -7.1 19.2
10:50 1022 30.18 851 25.13 12.4 54.3 26 -6.7 20
10:55 1022 30.18 851 25.13 12 53.6 26 -7.1 19.3
11:00 1022 30.18 851 25.13 12.6 54.7 25 -7 19.5
11:05 1022 30.18 851 25.13 12.9 55.2 24 -7 19.4
11:10 1022 30.18 851 25.13 13.3 55.9 24 -7.1 19.3
11:15 1022 30.18 851 25.13 13.5 56.3 24 -6.9 19.6
11:20 1022 30.18 851 25.13 13.6 56.4 23 -7.1 19.2
11:25 1022 30.18 851 25.13 14.2 57.6 22 -6.9 19.6
11:30 1022 30.18 851 25.13 14.1 57.4 23 -6.5 20.3
11:35 1022 30.18 851 25.13 13.8 56.8 26 -5.4 22.4
11:40 1022 30.18 851 25.13 13.2 55.7 29 -4.3 24.3
11:45 1021 30.15 851 25.13 12.7 54.9 30 -4.4 24.1
11:50 1021 30.15 851 25.13 12.1 53.8 32 -4 24.8
11:55 1021 30.15 851 25.13 11.4 52.6 32 -4.5 23.8
12:00 1021 30.15 850 25.1 11.6 52.9 32 -4.5 23.8
12:05 1021 30.15 850 25.1 12.2 54 30 -5 23
12:10 1021 30.15 850 25.1 12.8 55 29 -4.9 23.3
12:15 1021 30.15 850 25.1 12.4 54.4 31 -4.2 24.5
12:20 1021 30.15 850 25.1 12.4 54.4 29 -5.2 22.7
12:25 1021 30.15 850 25.1 13.5 56.3 27 -5.3 22.5
12:30 1021 30.15 850 25.1 12.9 55.2 29 -4.8 23.3
12:35 1021 30.15 850 25.1 12.5 54.4 28 -5.7 21.8
12:40 1021 30.15 850 25.1 13.3 55.9 27 -5.3 22.4
12:45 1021 30.15 850 25.1 13.1 55.7 27 -5.2 22.6
12:50 1021 30.15 850 25.1 13.3 56 26 -5.7 21.7
12:55 1021 30.15 850 25.1 14.1 57.4 25 -5.4 22.4
13:00 1021 30.15 850 25.1 14.5 58.1 24 -5.6 21.9
13:05 1021 30.15 850 25.1 14.9 58.8 23 -6 21.2
13:10 1020 30.12 850 25.1 15 59 22 -6.3 20.7
13:15 1020 30.12 850 25.1 14.9 58.8 21 -7 19.4
13:20 1020 30.12 850 25.1 15.1 59.3 20 -7.3 18.9
13:25 1020 30.12 849 25.07 14.4 57.8 21 -7.8 17.9
13:30 1020 30.12 849 25.07 14.5 58 21 -7.6 18.3
13:35 1020 30.12 849 25.07 14.5 58 21 -7.6 18.3
13:40 1020 30.12 849 25.07 14.8 58.7 20 -7.6 18.3
13:45 1020 30.12 849 25.07 15.8 60.4 20 -7.4 18.7
13:50 1020 30.12 849 25.07 16.2 61.1 19 -7.1 19.2
13:55 1020 30.12 849 25.07 15.2 59.4 20 -7.3 18.8
14:00 1020 30.12 849 25.07 15.6 60 19 -7.8 17.9
14:05 1020 30.12 849 25.07 16.1 60.9 19 -7.5 18.5
14:10 1020 30.12 849 25.07 16.5 61.8 19 -7.3 18.9
14:15 1019 30.09 849 25.07 16.7 62 18 -7.6 18.3
14:20 1019 30.09 849 25.07 16.8 62.2 18 -7.9 17.8
14:25 1019 30.09 849 25.07 16.9 62.5 18 -7.8 17.9
14:30 1019 30.09 849 25.07 16.9 62.4 17 -7.9 17.8
14:35 1019 30.09 849 25.07 16.8 62.2 17 -8.2 17.3
14:40 1019 30.09 849 25.07 16.4 61.5 19 -7.4 18.6
14:45 1019 30.09 849 25.07 15.7 60.3 19 -7.8 18
14:50 1019 30.09 848 25.04 15.1 59.1 20 -7.7 18.1
14:55 1019 30.09 848 25.04 15.6 60.1 19 -8.1 17.5
15:00 1019 30.09 848 25.04 16.6 61.8 17 -8.3 17
15:05 1019 30.09 848 25.04 17.1 62.9 17 -8.4 17
15:10 1019 30.09 848 25.04 17.3 63.1 17 -8 17.6
15:15 1019 30.09 848 25.04 16.8 62.3 17 -8 17.6
15:20 1019 30.09 848 25.04 16.8 62.3 18 -7.5 18.5
15:25 1019 30.09 848 25.04 17.1 62.7 17 -7.8 17.9
15:30 1019 30.09 848 25.04 17 62.5 18 -7.3 18.8
15:35 1019 30.09 848 25.04 16.8 62.2 18 -7.3 18.8
15:40 1019 30.09 848 25.04 16.6 61.9 19 -7.2 19
15:45 1019 30.09 848 25.04 16.5 61.6 19 -7.4 18.7
15:50 1019 30.09 848 25.04 16.4 61.5 19 -6.9 19.6
15:55 1019 30.09 848 25.04 16.4 61.4 20 -6.7 19.9
16:00 1019 30.09 848 25.04 16.3 61.4 20 -6.5 20.3
16:05 1019 30.09 848 25.04 15.8 60.4 21 -6.2 20.9
16:10 1019 30.09 848 25.04 15.2 59.4 22 -6.4 20.5
16:15 1019 30.09 848 25.04 15.6 60 21 -6.6 20.2
16:20 1019 30.09 848 25.04 15.5 59.9 22 -6.3 20.7
16:25 1019 30.09 848 25.04 15 59 22 -6.6 20.1
16:30 1019 30.09 848 25.04 14.7 58.4 23 -6.2 20.9
16:35 1018 30.06 848 25.04 14.7 58.4 23 -6 21.3
16:40 1018 30.06 848 25.04 14.5 58.2 22 -6.8 19.8
16:45 1018 30.06 848 25.04 14.2 57.6 24 -6.2 20.8
16:50 1018 30.06 848 25.04 14 57.3 24 -6.1 21
16:55 1018 30.06 848 25.04 13.8 56.9 24 -6.1 21
17:00 1018 30.06 848 25.04 13.6 56.4 28 -4.8 23.4
17:05 1018 30.06 847 25.01 12.5 54.5 31 -4.1 24.7
17:10 1018 30.06 847 25.01 11.9 53.4 33 -4 24.7
17:15 1018 30.06 847 25.01 11.5 52.6 34 -4 24.8
17:20 1018 30.06 847 25.01 11.1 52 35 -3.8 25.2
17:25 1018 30.06 847 25.01 11 51.7 35 -3.9 25
17:30 1018 30.06 847 25.01 10.9 51.6 34 -4.1 24.6
17:35 1018 30.06 847 25.01 10.4 50.7 37 -3.7 25.4
17:40 1018 30.06 847 25.01 9.8 49.6 38 -3.9 25
17:45 1018 30.06 847 25.01 9.6 49.3 36 -4.7 23.6
17:50 1018 30.06 847 25.01 9.7 49.4 39 -3.7 25.3
17:55 1018 30.06 847 25.01 8.7 47.7 42 -3.6 25.6
18:00 1018 30.06 847 25.01 8.2 46.7 41 -4.4 24.1
18:05 1018 30.06 847 25.01 7.8 46 40 -4.9 23.2
18:10 1018 30.06 847 25.01 7.9 46.1 38 -5.4 22.2
18:15 1018 30.06 847 25.01 8 46.4 37 -5.7 21.8
18:20 1018 30.06 847 25.01 8.2 46.7 34 -6.6 20.1
18:25 1018 30.06 847 25.01 9 48.2 32 -6.9 19.5
18:30 1018 30.06 847 25.01 9.3 48.7 33 -6.4 20.6
18:35 1018 30.06 847 25.01 9.1 48.4 33 -6.4 20.5
18:40 1018 30.06 847 25.01 8.8 47.8 33 -6.8 19.8
18:45 1018 30.06 847 25.01 9.2 48.6 33 -6.2 20.8
18:50 1018 30.06 847 25.01 9.3 48.8 31 -6.9 19.6
18:55 1018 30.06 847 25.01 9.5 49.1 31 -6.9 19.5
19:00 1018 30.06 847 25.01 9.4 48.9 31 -7 19.5
19:05 1018 30.06 847 25.01 8.9 48 31 -7.1 19.2
19:10 1018 30.06 847 25.01 9.1 48.4 31 -7.2 19
19:15 1018 30.06 847 25.01 8.5 47.3 34 -6.5 20.2
19:20 1018 30.06 847 25.01 7.8 46 35 -6.7 20
19:25 1018 30.06 847 25.01 7.8 46.1 33 -7.5 18.6
19:30 1017 30.03 847 25.01 8.8 47.8 32 -7.2 19.1
19:35 1017 30.03 847 25.01 8.7 47.6 34 -6.5 20.3
19:40 1017 30.03 847 25.01 8.5 47.2 33 -6.8 19.8
19:45 1017 30.03 847 25.01 8.3 46.9 34 -6.8 19.8
19:50 1017 30.03 847 25.01 8.5 47.3 33 -6.7 19.9
19:55 1017 30.03 846 24.98 8.2 46.7 35 -6.2 20.8
20:00 1017 30.03 846 24.98 7.4 45.4 36 -6.6 20.2
20:05 1017 30.03 846 24.98 7.3 45.1 36 -6.7 20
20:10 1017 30.03 846 24.98 7.1 44.8 35 -7.3 18.9
20:15 1017 30.03 846 24.98 7.3 45.1 35 -7.3 18.9
20:20 1017 30.03 846 24.98 8.1 46.6 33 -7.4 18.7
20:25 1017 30.03 846 24.98 8.4 47.1 33 -6.9 19.6
20:30 1017 30.03 846 24.98 8.4 47.2 34 -6.6 20.1
20:35 1017 30.03 846 24.98 8.1 46.5 34 -6.8 19.8
20:40 1017 30.03 847 25.01 7.4 45.3 35 -7.2 19
20:45 1017 30.03 847 25.01 7.5 45.4 33 -7.8 17.9
20:50 1017 30.03 847 25.01 8.1 46.5 32 -7.8 17.9
20:55 1017 30.03 847 25.01 8 46.4 34 -7.1 19.3
21:00 1017 30.03 847 25.01 7.8 46 33 -7.5 18.5
21:05 1017 30.03 847 25.01 7.2 44.9 35 -7.1 19.2
21:10 1018 30.06 847 25.01 7.1 44.8 35 -7.4 18.7
21:15 1018 30.06 847 25.01 7.4 45.4 34 -7.4 18.7
21:20 1017 30.03 847 25.01 7.6 45.7 33 -7.5 18.5
21:25 1018 30.06 847 25.01 8 46.3 31 -7.9 17.7
21:30 1017 30.03 847 25.01 8.4 47.1 32 -7.5 18.5
21:35 1017 30.03 847 25.01 7.9 46.2 33 -7.4 18.7
21:40 1017 30.03 847 25.01 7.6 45.7 33 -7.8 17.9
21:45 1017 30.03 847 25.01 7.9 46.1 33 -7.3 18.9
21:50 1017 30.03 847 25.01 7.6 45.6 32 -8 17.6
21:55 1017 30.03 847 25.01 8.3 46.9 31 -7.8 17.9
22:00 1017 30.03 847 25.01 8.1 46.6 31 -7.8 18
22:05 1017 30.03 846 24.98 7.9 46.2 32 -7.8 18
22:10 1017 30.03 846 24.98 7.7 45.9 33 -7.5 18.5
22:15 1017 30.03 846 24.98 7 44.6 34 -8 17.7
22:20 1017 30.03 846 24.98 7.3 45.2 32 -8.1 17.4
22:25 1017 30.03 846 24.98 7.7 45.8 32 -7.8 17.9
22:30 1017 30.03 846 24.98 7.5 45.5 32 -8 17.7
22:35 1017 30.03 846 24.98 7.4 45.3 33 -8 17.7
22:40 1017 30.03 846 24.98 7.1 44.8 34 -7.8 18
22:45 1017 30.03 846 24.98 6.4 43.6 36 -7.4 18.7
22:50 1017 30.03 846 24.98 6.1 42.9 38 -7.1 19.2
22:55 1017 30.03 846 24.98 5.8 42.4 39 -7.2 19
23:00 1017 30.03 846 24.98 5.9 42.6 39 -7.2 19.1
23:05 1017 30.03 846 24.98 5.6 42.1 40 -7.1 19.2
23:10 1017 30.03 846 24.98 5.6 42.1 39 -7.3 18.9
23:15 1017 30.03 846 24.98 5.8 42.5 37 -7.8 18
23:20 1017 30.03 846 24.98 6.3 43.3 35 -8.1 17.4
23:25 1017 30.03 846 24.98 6.5 43.7 36 -7.6 18.4
23:30 1016 30 846 24.98 6.4 43.5 35 -8.1 17.4
23:35 1016 30 846 24.98 6.9 44.4 34 -7.9 17.8
23:40 1016 30 846 24.98 6.6 43.9 36 -7.6 18.4
23:45 1016 30 846 24.98 6.3 43.3 36 -7.7 18.1
23:50 1016 30 846 24.98 6.4 43.6 35 -7.9 17.8
23:55 1016 30 846 24.98 6.6 43.8 35 -7.9 17.8
24:00 1016 30 845 24.95 6.6 43.8 36 -7.6 18.3